Santiago de Cali, Colombia

6:27 PM -05 en Febrero 17, 2018 (GMT -0500)
Alfonso Bonilla Aragon International | | Change Station

Alt 3179 ft 3.55 °N, 76.38 °W | Updated 27 minutes ago

Lluvia
Lluvia
73 ° F
Sensación térmica 73 ° F
N
6
Viento Variable Viento desde NE

Hoy
Alta -- | Baja -- ° F
--% Posibilidad de precipitaciones
Ayer
Alta -- | Baja -- ° F
Precip. -- pul
Presión 29.95 pul
Visibilidad 6.2 Millas
Nubes Baja 2000 ft
Nubes dispersas 4000 ft
Muy nublado 10000 ft
Punto de rocío 73 ° F
Humedad 100%
Precipitaciones 0.00 pul
Espesor de la nieve No disponible.
6:17 AM 6:18 PM
Creciente, 4% visible
METAR SKCL 172300Z 05005KT 030V090 9999 FEW020 SCT040 BKN100 23/23 A2995 REDZ
Presión 29.95 pul
Visibilidad 6.2 Millas
Nubes Baja 2000 ft
Nubes dispersas 4000 ft
Muy nublado 10000 ft
Punto de rocío 73 ° F
Humedad 100%
Precipitaciones 0.00 pul
Espesor de la nieve No disponible.
6:17 AM 6:18 PM
Creciente, 4% visible
METAR SKCL 172300Z 05005KT 030V090 9999 FEW020 SCT040 BKN100 23/23 A2995 REDZ

Get Severe Weather Alerts

Thanks for signing up!

Be on the lookout for a verification email in your inbox.

You'll start receiving the daily forecast at 6 AM.

×

10-Day Weather Forecast

No radar image for this location.
×

Almanac

Astronomía

Feb. 17, 2018 Salida Puesta
Hora real
Crepúsculo civil
Crepúsculo náutico
Crepúsculo astronómico
Luna
Horas de luz
Horas de luz
Tomorrow will be .
, % of the Moon is Illuminated

Extremos de hoy

Máximos del país Bajas del país

Community

WunderPhotos

Category 6

Welcome to Category 6. This is the collective home for Weather Underground's featured writeups by Dr. Jeff Masters (right), Bob Henson (left), Chris Burt, and other regular contributors.

Nearby

Calidad del aire

  Calidad del aire Índice AQ Contaminante
Not available.

Grosos de nieve

Estación Profundido Altura

Actividad de terremotos

Ciudad Distance Mag. Tiempo y dato
Magnitud mínima muestra es 2,5.

Temperaturas de aguas costeras

Lugar Temperatura

Stations

Estaciones meteorológicas cercanas

Ubicación de la estación Temp. Vientos helados Punto de rocío Humedad Viento Precip. Alt Actualizado Tipo